首页
METAR-TAF:

METAR-TAF

机场 :

易卜拉欣·納西爾國際機場

馬累, 马尔代夫

纬度: 04-12N, 经度: 073-32E, 海拔: 2米

当前天气观测

该预报发布于1小时和39分钟前的22:00 UTC
风速8节,风向
温度 27°C
湿度 89%
气压 1008 hPa
能见度10公里或以上
少量云层高于1600英尺
散云层高于1700英尺, 积雨云.
小阵雨

METAR: VRMM 142200Z 17008KT 9999 -SHRA FEW016 SCT017CB 27/25 Q1008 CB N,NW,OVERHEAD TEMPO 5000 -SHRA FEW018CB

时间: 04:39 (23:39 UTC)

预报

该预报发布于6小时和39分钟前的17:00 UTC
预报有效从14日的 18点(UTC)到 15日的 24点(UTC)
风速10节,风向
能见度10公里或以上
少量云层高于1700英尺, 塔状积云.
短暂存在
从 14日的 18点(UTC)到 14日的 24点(UTC)
能見度: 5000
少量云层高于1700英尺, 积雨云.
雷暴, 小雨

TAF: VRMM 141700Z 1418/1524 10010KT 9999 FEW017TCU TEMPO 1418/1424 5000 -TSRA FEW017CB

超过4000个机场的气象观测和天气预报(METAR&TAF报告)。

可查询的气象台以黄色和红色小点在地图上表示。

将鼠标移到小点上方,可查看气象台名称。

然后点击查看天气观测和预报。

如需切换地图:点击带黑十字的绿色按钮放大地图;点击带横线的绿色按钮缩小地图;或者点击绿色箭头查看邻近地区的地图。


METAR-TAF: